Time;durP1;ratioP1;P1;durP2;ratioP2;P2;SDS_P1;SDS_P2;PMS_P1;PMS_P2;Temp;Humidity;BMP_temperature;BMP_pressure;BME280_temperature;BME280_humidity;BME280_pressure;Samples;Min_cycle;Max_cycle;Signal;HPM_P1;HPM_P2
2022/04/23 00:01:53;;;;;;;4.07;2.78;;;25.80;30.80;;;;;;5040202;28;20482;-65
2022/04/23 00:04:20;;;;;;;1.50;1.30;;;25.80;30.80;;;;;;5040347;28;20052;-65
2022/04/23 00:06:48;;;;;;;2.55;1.13;;;25.80;30.80;;;;;;5038685;28;20049;-66
2022/04/23 00:09:15;;;;;;;2.10;1.17;;;25.80;30.80;;;;;;5041736;28;20494;-69
2022/04/23 00:11:43;;;;;;;0.90;0.90;;;25.80;30.80;;;;;;5041924;28;20068;-67
2022/04/23 00:14:10;;;;;;;1.98;1.33;;;25.80;31.40;;;;;;5023663;28;20818;-67
2022/04/23 00:16:37;;;;;;;1.05;1.02;;;25.80;30.80;;;;;;5038218;28;20124;-65
2022/04/23 00:19:05;;;;;;;2.05;1.80;;;25.80;30.80;;;;;;5039459;28;20045;-66
2022/04/23 00:21:32;;;;;;;2.78;1.08;;;25.80;30.90;;;;;;5040130;28;20094;-66
2022/04/23 00:24:00;;;;;;;1.52;1.42;;;25.80;30.90;;;;;;5042922;28;20970;-68
2022/04/23 00:26:27;;;;;;;3.40;1.27;;;25.80;31.00;;;;;;5038568;28;20178;-69
2022/04/23 00:28:54;;;;;;;2.45;1.30;;;25.80;30.90;;;;;;5041760;28;20045;-66
2022/04/23 00:31:21;;;;;;;2.47;1.40;;;25.80;31.00;;;;;;5040298;28;20111;-68
2022/04/23 00:33:49;;;;;;;1.20;1.10;;;25.80;31.00;;;;;;5040464;28;20064;-67
2022/04/23 00:36:18;;;;;;;1.20;1.10;;;25.80;31.00;;;;;;5021326;28;20037;-67
2022/04/23 00:38:49;;;;;;;1.63;1.42;;;25.80;31.60;;;;;;5040535;28;20124;-68
2022/04/23 00:43:58;;;;;;;1.63;1.50;;;25.80;30.90;;;;;;5020895;28;20052;-68
2022/04/23 00:46:25;;;;;;;3.22;1.48;;;25.80;30.90;;;;;;5037249;28;20528;-68
2022/04/23 00:48:52;;;;;;;3.42;1.45;;;25.80;30.90;;;;;;5035109;28;20723;-68
2022/04/23 00:51:20;;;;;;;1.83;1.73;;;25.80;30.90;;;;;;5037072;28;20059;-69
2022/04/23 00:53:48;;;;;;;1.88;1.45;;;25.80;31.00;;;;;;5040179;28;20056;-69
2022/04/23 00:56:17;;;;;;;1.80;1.70;;;25.80;31.00;;;;;;5022028;28;20041;-69
2022/04/23 00:58:44;;;;;;;1.33;1.13;;;25.80;31.10;;;;;;5035793;28;20060;-69
2022/04/23 01:01:11;;;;;;;4.15;2.20;;;25.80;31.00;;;;;;5038367;28;20049;-67
2022/04/23 01:03:39;;;;;;;1.08;1.08;;;25.80;31.00;;;;;;5040788;28;20437;-68
2022/04/23 01:06:09;;;;;;;1.48;1.38;;;25.80;31.10;;;;;;5042551;28;20456;-70
2022/04/23 01:08:38;;;;;;;1.48;1.38;;;25.80;31.10;;;;;;5023569;28;20041;-70
2022/04/23 01:11:05;;;;;;;1.17;1.00;;;25.80;31.10;;;;;;5041833;28;20094;-66
2022/04/23 01:13:33;;;;;;;2.22;2.13;;;25.70;31.10;;;;;;5041454;28;20421;-67
2022/04/23 01:16:02;;;;;;;3.55;2.05;;;25.80;31.20;;;;;;5023071;28;20048;-66
2022/04/23 01:18:29;;;;;;;2.95;1.40;;;25.80;31.20;;;;;;5040815;28;20041;-66
2022/04/23 01:20:59;;;;;;;2.25;1.38;;;25.80;31.20;;;;;;5042036;28;20041;-64
2022/04/23 01:23:26;;;;;;;1.42;1.25;;;25.80;31.20;;;;;;5040181;28;20072;-65
2022/04/23 01:25:54;;;;;;;6.15;2.03;;;25.80;31.20;;;;;;5035852;28;20262;-68
2022/04/23 01:28:22;;;;;;;3.17;1.70;;;25.80;31.20;;;;;;5034726;28;20802;-66
2022/04/23 01:30:50;;;;;;;2.42;1.80;;;25.80;31.30;;;;;;5037504;28;20472;-67
2022/04/23 01:33:18;;;;;;;1.90;1.23;;;25.70;31.10;;;;;;5038747;28;20061;-66
2022/04/23 01:35:45;;;;;;;1.45;1.45;;;25.70;31.10;;;;;;5041982;28;20059;-64
2022/04/23 01:38:14;;;;;;;2.30;1.92;;;25.70;31.10;;;;;;5020905;28;20462;-65
2022/04/23 01:40:42;;;;;;;2.05;1.88;;;25.70;31.10;;;;;;5040220;28;20045;-65
2022/04/23 01:43:09;;;;;;;2.53;1.60;;;25.70;31.20;;;;;;5044230;28;20037;-65
2022/04/23 01:45:37;;;;;;;1.73;1.63;;;25.70;31.20;;;;;;5044535;28;20044;-65
2022/04/23 01:48:05;;;;;;;3.47;2.25;;;25.70;31.30;;;;;;5046619;28;20049;-64
2022/04/23 01:50:32;;;;;;;2.08;1.98;;;25.70;31.30;;;;;;5044807;28;20102;-65
2022/04/23 01:52:59;;;;;;;3.17;2.08;;;25.70;31.20;;;;;;5044820;28;20219;-65
2022/04/23 01:55:28;;;;;;;1.60;1.50;;;25.70;31.30;;;;;;5022624;28;20041;-66
2022/04/23 01:57:55;;;;;;;4.57;1.90;;;25.70;31.40;;;;;;5043687;28;20041;-67
2022/04/23 02:00:22;;;;;;;3.22;2.92;;;25.70;31.40;;;;;;5045025;28;20045;-68
2022/04/23 02:02:49;;;;;;;2.45;2.35;;;25.70;31.40;;;;;;5045968;28;20232;-68
2022/04/23 02:05:17;;;;;;;6.97;2.97;;;25.70;31.40;;;;;;5026494;28;20073;-69
2022/04/23 02:07:46;;;;;;;3.25;1.77;;;25.70;31.50;;;;;;5044137;28;20122;-68
2022/04/23 02:10:14;;;;;;;1.77;1.77;;;25.70;31.50;;;;;;5044907;28;20052;-68
2022/04/23 02:12:45;;;;;;;2.33;1.33;;;25.70;31.50;;;;;;5044220;28;20052;-66
2022/04/23 02:15:15;;;;;;;1.75;1.35;;;25.70;31.40;;;;;;5045595;28;20049;-66
2022/04/23 02:17:44;;;;;;;2.17;2.08;;;25.70;31.40;;;;;;5045494;28;20037;-66
2022/04/23 02:20:12;;;;;;;1.65;1.42;;;25.60;31.40;;;;;;5040880;28;20065;-66
2022/04/23 02:22:40;;;;;;;4.45;2.78;;;25.60;31.40;;;;;;5041232;28;20041;-66
2022/04/23 02:25:08;;;;;;;1.90;1.73;;;25.60;31.30;;;;;;5038359;28;20043;-66
2022/04/23 02:27:44;;;;;;;2.05;1.95;;;25.60;31.30;;;;;;5043375;28;20485;-65
2022/04/23 02:30:13;;;;;;;1.92;1.83;;;25.60;31.30;;;;;;5041145;28;20122;-68
2022/04/23 02:32:41;;;;;;;2.92;2.00;;;25.50;31.90;;;;;;5045246;28;20827;-68
2022/04/23 02:35:09;;;;;;;1.95;1.85;;;25.50;31.40;;;;;;5040283;28;20045;-68
2022/04/23 02:37:36;;;;;;;2.05;1.50;;;25.50;31.40;;;;;;5043892;28;20056;-68
2022/04/23 02:40:05;;;;;;;1.88;1.77;;;25.50;31.50;;;;;;5044728;28;20510;-68
2022/04/23 02:42:33;;;;;;;1.80;1.60;;;25.50;31.50;;;;;;5044244;28;20076;-69
2022/04/23 02:45:02;;;;;;;2.55;2.35;;;25.50;31.60;;;;;;5045908;28;20055;-68
2022/04/23 02:47:30;;;;;;;1.55;1.45;;;25.50;31.60;;;;;;5043810;28;20076;-68
2022/04/23 02:49:57;;;;;;;1.90;1.80;;;25.50;31.70;;;;;;5044624;28;20047;-68
2022/04/23 02:52:25;;;;;;;1.52;1.42;;;25.50;31.80;;;;;;5001371;28;20131;-68
2022/04/23 02:54:52;;;;;;;2.10;2.00;;;25.40;31.70;;;;;;5042936;28;20091;-65
2022/04/23 02:57:19;;;;;;;6.38;1.92;;;25.40;31.80;;;;;;5043890;28;20049;-65
2022/04/23 02:59:46;;;;;;;1.60;1.50;;;25.40;31.90;;;;;;5044587;28;20072;-65
2022/04/23 03:02:15;;;;;;;4.03;1.70;;;25.40;31.90;;;;;;5043299;28;20055;-65
2022/04/23 03:04:43;;;;;;;1.58;1.48;;;25.40;32.00;;;;;;5043564;28;20090;-65
2022/04/23 03:07:10;;;;;;;2.58;1.40;;;25.40;32.00;;;;;;5042908;28;20077;-65
2022/04/23 03:09:37;;;;;;;3.92;1.88;;;25.30;32.00;;;;;;5041844;28;20071;-65
2022/04/23 03:12:05;;;;;;;1.60;1.50;;;25.30;32.00;;;;;;5045019;28;20135;-65
2022/04/23 03:14:32;;;;;;;1.80;1.70;;;25.30;32.00;;;;;;5043697;28;20045;-65
2022/04/23 03:17:00;;;;;;;2.08;1.98;;;25.30;32.60;;;;;;5042197;28;20057;-67
2022/04/23 03:19:28;;;;;;;2.45;1.90;;;25.30;32.60;;;;;;5043831;28;20041;-67
2022/04/23 03:21:57;;;;;;;3.63;1.02;;;25.30;31.90;;;;;;5025293;28;20041;-67
2022/04/23 03:24:24;;;;;;;2.05;1.95;;;25.30;31.90;;;;;;5043846;28;20044;-68
2022/04/23 03:26:52;;;;;;;2.65;1.15;;;25.20;31.90;;;;;;5044146;28;20037;-67
2022/04/23 03:29:20;;;;;;;2.80;1.85;;;25.20;31.90;;;;;;5043204;28;20079;-68
2022/04/23 03:31:48;;;;;;;1.95;1.25;;;25.20;31.80;;;;;;5019017;28;20037;-68
2022/04/23 03:34:15;;;;;;;4.25;1.33;;;25.20;31.80;;;;;;5037361;28;20657;-68
2022/04/23 03:36:43;;;;;;;1.25;1.25;;;25.20;31.80;;;;;;5025075;28;20048;-68
2022/04/23 03:39:10;;;;;;;2.17;2.03;;;25.20;31.90;;;;;;5040857;28;20041;-68
2022/04/23 03:41:37;;;;;;;2.92;2.00;;;25.20;31.80;;;;;;5043824;28;20123;-68
2022/04/23 03:44:05;;;;;;;3.03;1.52;;;25.20;31.80;;;;;;5041672;28;20049;-68
2022/04/23 03:46:32;;;;;;;2.40;2.10;;;25.10;31.80;;;;;;5042952;28;20036;-68
2022/04/23 03:48:59;;;;;;;1.20;1.10;;;25.10;31.80;;;;;;5042843;28;20037;-68
2022/04/23 03:51:26;;;;;;;2.47;1.40;;;25.10;31.80;;;;;;5043520;28;20207;-65
2022/04/23 03:53:55;;;;;;;2.05;1.83;;;25.10;31.90;;;;;;5044093;28;20049;-65
2022/04/23 03:56:22;;;;;;;2.67;1.95;;;25.10;31.90;;;;;;5041905;28;20049;-65
2022/04/23 03:58:49;;;;;;;1.75;1.70;;;25.10;32.10;;;;;;5043048;28;20072;-65
2022/04/23 04:01:17;;;;;;;3.33;1.52;;;25.10;32.10;;;;;;5042672;28;20049;-66
2022/04/23 04:03:44;;;;;;;3.10;2.08;;;25.10;32.10;;;;;;5043161;28;20412;-66
2022/04/23 04:06:11;;;;;;;1.98;1.83;;;25.10;32.20;;;;;;5044498;28;20408;-65
2022/04/23 04:08:38;;;;;;;1.20;1.05;;;25.00;32.20;;;;;;5041937;28;20136;-65
2022/04/23 04:11:07;;;;;;;2.67;1.13;;;25.00;32.20;;;;;;5024842;28;20041;-65
2022/04/23 04:13:36;;;;;;;2.17;1.60;;;25.00;32.30;;;;;;5042735;28;20033;-66
2022/04/23 04:16:04;;;;;;;1.15;1.15;;;25.00;32.20;;;;;;5042683;28;20057;-66
2022/04/23 04:18:31;;;;;;;1.70;1.48;;;25.00;32.30;;;;;;5043222;28;20064;-65
2022/04/23 04:20:59;;;;;;;2.42;2.22;;;25.00;32.40;;;;;;5025874;28;20536;-67
2022/04/23 04:23:27;;;;;;;4.07;1.90;;;25.00;32.30;;;;;;5007525;28;20049;-68
2022/04/23 04:25:54;;;;;;;1.00;1.00;;;25.00;32.30;;;;;;5041954;28;20124;-66
2022/04/23 04:28:22;;;;;;;1.77;1.67;;;24.90;32.30;;;;;;5024414;28;20033;-66
2022/04/23 04:33:35;;;;;;;1.20;1.20;;;24.90;32.20;;;;;;5042002;28;20053;-66
2022/04/23 04:36:03;;;;;;;1.83;1.35;;;24.90;32.20;;;;;;5042628;28;20132;-66
2022/04/23 04:38:30;;;;;;;2.00;1.40;;;24.90;32.30;;;;;;5024131;28;20071;-65
2022/04/23 04:40:57;;;;;;;2.20;1.92;;;24.90;32.90;;;;;;5042132;28;20044;-65
2022/04/23 04:43:26;;;;;;;1.52;1.40;;;25.00;32.30;;;;;;5043079;28;20095;-66
2022/04/23 04:45:53;;;;;;;3.42;0.90;;;24.90;32.20;;;;;;5042068;28;20037;-66
2022/04/23 04:48:20;;;;;;;1.77;1.67;;;24.90;32.30;;;;;;5042453;28;20049;-66
2022/04/23 04:50:47;;;;;;;1.50;1.40;;;24.90;32.20;;;;;;5043728;28;20041;-67
2022/04/23 04:53:14;;;;;;;4.03;1.63;;;24.90;32.20;;;;;;5023663;28;20060;-66
2022/04/23 04:55:41;;;;;;;1.27;1.25;;;24.90;32.30;;;;;;5040961;28;20037;-67
2022/04/23 04:58:08;;;;;;;2.15;1.70;;;24.90;32.20;;;;;;5024491;28;20041;-67
2022/04/23 05:00:37;;;;;;;1.42;1.42;;;24.90;32.20;;;;;;5042100;28;20080;-67
2022/04/23 05:03:04;;;;;;;1.70;1.60;;;24.90;32.20;;;;;;5043739;28;20078;-67
2022/04/23 05:05:31;;;;;;;2.63;2.22;;;24.90;32.10;;;;;;5042041;28;20122;-66
2022/04/23 05:07:58;;;;;;;1.92;1.63;;;24.90;32.10;;;;;;5041581;28;20151;-68
2022/04/23 05:10:26;;;;;;;4.53;1.30;;;24.90;32.20;;;;;;5042658;28;20664;-68
2022/04/23 05:12:53;;;;;;;2.78;1.20;;;24.90;32.20;;;;;;5042063;28;20147;-68
2022/04/23 05:15:20;;;;;;;3.97;2.63;;;24.90;32.20;;;;;;5045769;28;20048;-68
2022/04/23 05:17:49;;;;;;;1.92;1.83;;;24.90;32.20;;;;;;5045149;28;20053;-67
2022/04/23 05:20:16;;;;;;;2.95;2.15;;;24.90;32.10;;;;;;5046144;28;20207;-68
2022/04/23 05:22:43;;;;;;;2.08;1.95;;;24.90;32.10;;;;;;5045345;28;20067;-68
2022/04/23 05:25:10;;;;;;;1.95;1.95;;;24.90;32.10;;;;;;5045767;28;20152;-67
2022/04/23 05:27:37;;;;;;;2.80;2.53;;;24.80;32.00;;;;;;5045431;28;20040;-66
2022/04/23 05:30:05;;;;;;;2.55;1.50;;;24.90;32.00;;;;;;5047250;28;20060;-66
2022/04/23 05:32:32;;;;;;;2.05;1.85;;;24.80;32.00;;;;;;5045043;28;20068;-65
2022/04/23 05:35:01;;;;;;;1.85;1.75;;;24.90;32.60;;;;;;5045702;28;20076;-65
2022/04/23 05:37:28;;;;;;;1.63;1.40;;;24.90;32.00;;;;;;5026645;28;20045;-65
2022/04/23 05:39:55;;;;;;;4.13;2.60;;;24.90;31.90;;;;;;5045146;28;20044;-66
2022/04/23 05:42:22;;;;;;;2.13;1.85;;;24.80;31.80;;;;;;5044335;28;20049;-66
2022/04/23 05:44:49;;;;;;;2.65;1.48;;;24.90;32.40;;;;;;5046843;28;20095;-65
2022/04/23 05:47:16;;;;;;;2.03;1.90;;;24.90;31.80;;;;;;5044986;28;20053;-66
2022/04/23 05:49:43;;;;;;;3.10;1.65;;;24.80;31.60;;;;;;5044794;28;20135;-64
2022/04/23 05:52:12;;;;;;;2.22;2.13;;;24.80;31.50;;;;;;5045079;28;20071;-65
2022/04/23 05:54:40;;;;;;;1.88;1.77;;;24.90;31.50;;;;;;5026732;28;20055;-66
2022/04/23 05:57:07;;;;;;;3.58;1.85;;;24.80;31.40;;;;;;5046823;28;20611;-66
2022/04/23 05:59:34;;;;;;;3.85;1.73;;;24.80;32.00;;;;;;5045293;28;20855;-66
2022/04/23 06:02:02;;;;;;;1.48;1.48;;;24.80;31.40;;;;;;5044714;28;20084;-66
2022/04/23 06:04:29;;;;;;;1.80;1.75;;;24.80;31.40;;;;;;5044617;28;20086;-66
2022/04/23 06:06:56;;;;;;;3.30;1.98;;;24.80;31.40;;;;;;5042716;28;20123;-66
2022/04/23 06:09:25;;;;;;;1.95;1.85;;;24.80;31.40;;;;;;5045253;28;20045;-65
2022/04/23 06:11:52;;;;;;;2.20;1.77;;;24.80;31.40;;;;;;5026753;28;20420;-66
2022/04/23 06:14:19;;;;;;;1.98;1.88;;;24.80;31.40;;;;;;5044710;28;20044;-67
2022/04/23 06:16:47;;;;;;;1.90;1.63;;;24.80;31.50;;;;;;5043839;28;20044;-67
2022/04/23 06:19:14;;;;;;;3.72;1.70;;;24.80;32.00;;;;;;5041315;28;20123;-65
2022/04/23 06:21:41;;;;;;;2.53;2.08;;;24.80;31.40;;;;;;5041630;28;20053;-66
2022/04/23 06:24:08;;;;;;;1.77;1.38;;;24.80;31.40;;;;;;5045979;28;20063;-65
2022/04/23 06:26:37;;;;;;;4.10;1.83;;;24.80;31.50;;;;;;5043265;28;20083;-66
2022/04/23 06:29:04;;;;;;;3.50;2.35;;;24.80;31.50;;;;;;5044738;28;20137;-65
2022/04/23 06:31:31;;;;;;;2.13;1.85;;;24.80;31.50;;;;;;5043795;28;20124;-67
2022/04/23 06:33:58;;;;;;;2.42;1.75;;;24.80;31.50;;;;;;5026560;28;20128;-68
2022/04/23 06:36:25;;;;;;;1.98;1.88;;;24.80;31.50;;;;;;5044415;28;20088;-68
2022/04/23 06:38:53;;;;;;;2.08;1.98;;;24.80;31.60;;;;;;5043038;28;20068;-73
2022/04/23 06:41:20;;;;;;;1.65;1.65;;;24.80;31.70;;;;;;5040517;28;20580;-67
2022/04/23 06:43:49;;;;;;;1.27;1.20;;;24.90;31.70;;;;;;5045565;28;20044;-63
2022/04/23 06:46:17;;;;;;;1.40;1.25;;;24.90;32.40;;;;;;5029457;28;20064;-67
2022/04/23 06:48:44;;;;;;;5.57;1.70;;;25.00;32.60;;;;;;5046730;28;20098;-64
2022/04/23 06:51:12;;;;;;;2.50;1.02;;;25.00;32.70;;;;;;5028834;28;20084;-64
2022/04/23 06:53:39;;;;;;;3.17;1.00;;;25.10;33.50;;;;;;5022170;28;20041;-59
2022/04/23 06:56:06;;;;;;;3.13;1.08;;;25.20;33.80;;;;;;5037775;28;20186;-50
2022/04/23 06:58:34;;;;;;;1.23;1.13;;;25.30;33.80;;;;;;5042811;28;20041;-44
2022/04/23 07:01:03;;;;;;;1.85;0.95;;;25.40;33.90;;;;;;5046552;28;20107;-51
2022/04/23 07:03:30;;;;;;;0.88;0.88;;;25.60;33.90;;;;;;5045906;28;20071;-48
2022/04/23 07:05:57;;;;;;;3.75;0.80;;;25.60;33.80;;;;;;5048311;28;20049;-47
2022/04/23 07:08:24;;;;;;;3.03;0.70;;;25.60;33.70;;;;;;5046470;28;20124;-46
2022/04/23 07:10:52;;;;;;;1.05;0.88;;;25.70;33.70;;;;;;5047017;28;20501;-44
2022/04/23 07:13:19;;;;;;;3.22;0.45;;;25.60;33.60;;;;;;5046454;28;20111;-50
2022/04/23 07:15:46;;;;;;;0.47;0.47;;;25.60;33.60;;;;;;5047211;28;20132;-48
2022/04/23 07:18:14;;;;;;;0.65;0.52;;;25.60;33.60;;;;;;5047340;28;20052;-48
2022/04/23 07:20:42;;;;;;;0.90;0.50;;;25.70;33.70;;;;;;5047794;28;20049;-48
2022/04/23 07:25:54;;;;;;;1.15;0.45;;;25.60;33.60;;;;;;5046020;28;20048;-46
2022/04/23 07:28:21;;;;;;;1.95;0.60;;;25.60;33.50;;;;;;5045065;28;20041;-44
2022/04/23 07:30:48;;;;;;;1.30;0.80;;;25.70;33.50;;;;;;5046456;28;20064;-44
2022/04/23 07:38:42;;;;;;;2.08;0.50;;;25.60;33.40;;;;;;5047042;28;20040;-45
2022/04/23 07:41:11;;;;;;;0.75;0.43;;;25.60;33.30;;;;;;5046404;28;20127;-45
2022/04/23 07:43:39;;;;;;;2.92;0.43;;;25.60;33.30;;;;;;5045811;28;20505;-45
2022/04/23 07:46:06;;;;;;;1.58;0.73;;;25.60;33.40;;;;;;5045975;28;20139;-48
2022/04/23 07:48:34;;;;;;;1.98;1.40;;;25.60;33.40;;;;;;5045774;28;20108;-44
2022/04/23 07:51:01;;;;;;;2.60;0.75;;;25.60;33.40;;;;;;5047485;28;20099;-46
2022/04/23 07:53:28;;;;;;;1.50;0.90;;;25.60;33.30;;;;;;5045705;28;20072;-45
2022/04/23 07:55:55;;;;;;;0.93;0.43;;;25.60;33.40;;;;;;5044986;28;20045;-45
2022/04/23 07:58:22;;;;;;;4.97;0.68;;;25.60;33.30;;;;;;5046054;28;20517;-48
2022/04/23 08:00:49;;;;;;;3.92;0.50;;;25.60;33.30;;;;;;5028220;28;20548;-50
2022/04/23 08:03:16;;;;;;;1.38;0.22;;;25.60;33.20;;;;;;5043420;28;20127;-53
2022/04/23 08:05:45;;;;;;;1.40;0.47;;;25.60;33.20;;;;;;5047576;28;20049;-46
2022/04/23 08:08:12;;;;;;;2.35;0.45;;;25.60;33.30;;;;;;5043028;28;20171;-44
2022/04/23 08:10:39;;;;;;;0.95;0.50;;;25.60;33.20;;;;;;5046114;28;20041;-50
2022/04/23 08:13:06;;;;;;;0.55;0.30;;;25.60;33.20;;;;;;5046145;28;20041;-51
2022/04/23 08:15:33;;;;;;;0.65;0.50;;;25.60;33.20;;;;;;5045715;28;20505;-51
2022/04/23 08:18:01;;;;;;;1.48;0.30;;;25.60;33.20;;;;;;5047405;28;20137;-49
2022/04/23 08:20:30;;;;;;;1.27;0.30;;;25.60;33.20;;;;;;5045613;28;20452;-45
2022/04/23 08:22:58;;;;;;;0.50;0.30;;;25.60;33.20;;;;;;5045487;28;20041;-48
2022/04/23 08:25:25;;;;;;;2.95;0.45;;;25.60;33.20;;;;;;5045635;28;20040;-46
2022/04/23 08:27:53;;;;;;;0.55;0.43;;;25.60;33.20;;;;;;5045827;28;20448;-47
2022/04/23 08:30:36;;;;;;;0.75;0.47;;;25.70;33.30;;;;;;5045738;28;20093;-51
2022/04/23 08:33:03;;;;;;;3.17;0.40;;;25.60;33.20;;;;;;5047504;28;20049;-48
2022/04/23 08:35:31;;;;;;;0.57;0.57;;;25.60;33.20;;;;;;5045474;28;20045;-44
2022/04/23 08:38:00;;;;;;;0.70;0.70;;;25.60;33.20;;;;;;5045552;28;20055;-45
2022/04/23 08:40:29;;;;;;;3.38;0.30;;;25.70;33.30;;;;;;5045830;28;20045;-44
2022/04/23 08:42:56;;;;;;;2.47;0.93;;;25.70;33.30;;;;;;5045959;28;20041;-44
2022/04/23 08:45:23;;;;;;;2.25;0.70;;;25.70;33.30;;;;;;5027971;28;20049;-46
2022/04/23 08:47:52;;;;;;;0.60;0.60;;;25.70;33.20;;;;;;5047853;28;20072;-44
2022/04/23 08:50:22;;;;;;;0.77;0.30;;;25.70;33.20;;;;;;5049378;28;20437;-44
2022/04/23 08:52:53;;;;;;;1.00;0.50;;;25.70;33.30;;;;;;5049658;28;20048;-44
2022/04/23 08:55:21;;;;;;;0.40;0.40;;;25.70;33.30;;;;;;5047234;28;20536;-45
2022/04/23 08:57:48;;;;;;;2.17;0.30;;;25.70;33.30;;;;;;5049496;28;20674;-44
2022/04/23 09:00:16;;;;;;;1.05;0.90;;;25.70;33.30;;;;;;5049805;28;20125;-46
2022/04/23 09:02:44;;;;;;;0.65;0.50;;;25.70;33.20;;;;;;5050552;28;20068;-50
2022/04/23 09:05:13;;;;;;;0.57;0.57;;;25.70;33.30;;;;;;5049477;28;20041;-45
2022/04/23 09:07:41;;;;;;;2.22;0.93;;;25.70;33.20;;;;;;5049167;28;20048;-44
2022/04/23 09:10:09;;;;;;;1.67;0.85;;;25.70;33.50;;;;;;5049719;28;20095;-44
2022/04/23 09:12:54;;;;;;;0.75;0.40;;;25.80;33.30;;;;;;5049373;28;20052;-44
2022/04/23 09:23:46;;;;;;;1.25;0.75;;;25.70;33.30;;;;;;5050268;28;20033;-44
2022/04/23 09:26:17;;;;;;;1.40;0.45;;;25.70;33.30;;;;;;5049255;28;20049;-48
2022/04/23 09:28:50;;;;;;;0.82;0.68;;;25.70;33.30;;;;;;5049004;28;20048;-49
2022/04/23 09:31:18;;;;;;;0.85;0.50;;;25.80;33.40;;;;;;5048720;28;20094;-48
2022/04/23 09:33:46;;;;;;;0.60;0.40;;;25.80;33.40;;;;;;5048949;28;20197;-48
2022/04/23 09:36:13;;;;;;;0.70;0.60;;;25.80;33.40;;;;;;5050417;28;20843;-44
2022/04/23 09:38:41;;;;;;;0.68;0.63;;;25.80;33.40;;;;;;5049422;28;20131;-46
2022/04/23 09:41:19;;;;;;;1.25;0.57;;;25.80;33.40;;;;;;5048741;28;20045;-46
2022/04/23 09:43:49;;;;;;;1.65;0.20;;;25.90;33.40;;;;;;5048071;28;20063;-48
2022/04/23 09:46:16;;;;;;;0.80;0.80;;;25.90;33.40;;;;;;5048879;28;20033;-46
2022/04/23 09:48:45;;;;;;;0.90;0.60;;;25.90;33.30;;;;;;5048894;28;20547;-44
2022/04/23 09:51:24;;;;;;;0.85;0.85;;;25.90;33.30;;;;;;5046531;28;20056;-45
2022/04/23 09:53:53;;;;;;;0.63;0.63;;;26.00;33.40;;;;;;5049849;28;20115;-49
2022/04/23 09:56:22;;;;;;;0.88;0.88;;;26.00;33.40;;;;;;5047056;28;20033;-49
2022/04/23 09:58:51;;;;;;;0.50;0.30;;;26.00;33.40;;;;;;5048220;28;20067;-48
2022/04/23 10:01:20;;;;;;;1.88;0.40;;;26.00;33.30;;;;;;5047709;28;20044;-49
2022/04/23 10:03:51;;;;;;;1.65;0.40;;;26.00;33.30;;;;;;5046805;28;20588;-49
2022/04/23 10:06:20;;;;;;;0.95;0.50;;;26.00;33.30;;;;;;5049016;28;20041;-46
2022/04/23 10:08:52;;;;;;;0.65;0.65;;;26.10;33.40;;;;;;5050030;28;20041;-45
2022/04/23 10:11:23;;;;;;;0.63;0.45;;;26.10;33.40;;;;;;5047945;28;20528;-45
2022/04/23 10:13:56;;;;;;;1.00;0.32;;;26.10;33.40;;;;;;5048114;28;20083;-48
2022/04/23 10:16:24;;;;;;;2.28;0.65;;;26.10;33.30;;;;;;5047638;28;20132;-44
2022/04/23 10:18:52;;;;;;;0.88;0.63;;;26.10;33.30;;;;;;5048096;28;20048;-46
2022/04/23 10:21:26;;;;;;;1.15;0.63;;;26.10;33.30;;;;;;5048616;28;20468;-44
2022/04/23 10:24:05;;;;;;;1.27;0.73;;;26.20;33.40;;;;;;5049655;28;20045;-46
2022/04/23 10:26:44;;;;;;;0.70;0.38;;;26.20;34.00;;;;;;5047840;28;20132;-44
2022/04/23 10:29:15;;;;;;;1.33;0.45;;;26.20;33.30;;;;;;5047083;28;20041;-45
2022/04/23 10:31:43;;;;;;;1.83;0.75;;;26.20;33.40;;;;;;5047710;28;20666;-44
2022/04/23 10:34:31;;;;;;;0.95;0.57;;;26.20;33.40;;;;;;5048167;28;20040;-48
2022/04/23 10:37:15;;;;;;;0.47;0.45;;;26.20;33.30;;;;;;5046359;28;20044;-46
2022/04/23 10:39:43;;;;;;;1.08;0.95;;;26.30;33.40;;;;;;5041372;28;20044;-46
2022/04/23 10:42:13;;;;;;;0.60;0.57;;;26.20;33.40;;;;;;5045833;28;20111;-46
2022/04/23 10:44:44;;;;;;;0.68;0.68;;;26.30;33.50;;;;;;5048415;28;20429;-48
2022/04/23 10:47:16;;;;;;;0.28;0.20;;;26.30;33.40;;;;;;5047695;28;20603;-48
2022/04/23 10:49:44;;;;;;;0.45;0.40;;;26.30;33.50;;;;;;5047248;28;20122;-47
2022/04/23 10:52:12;;;;;;;0.50;0.47;;;26.30;33.40;;;;;;5047461;28;20041;-44
2022/04/23 10:54:56;;;;;;;0.47;0.40;;;26.40;33.50;;;;;;5047039;28;20053;-46
2022/04/23 10:57:24;;;;;;;0.40;0.25;;;26.40;33.40;;;;;;5045398;28;20052;-46
2022/04/23 10:59:53;;;;;;;0.98;0.30;;;26.30;33.40;;;;;;5048907;28;20037;-50
2022/04/23 11:02:32;;;;;;;0.45;0.43;;;26.40;33.40;;;;;;5047403;28;20124;-44
2022/04/23 11:13:27;;;;;;;0.50;0.50;;;26.40;33.40;;;;;;5046582;28;20067;-47
2022/04/23 11:16:16;;;;;;;0.40;0.40;;;26.50;33.50;;;;;;5041155;28;20039;-47
2022/04/23 11:18:44;;;;;;;1.05;0.20;;;26.50;33.50;;;;;;5043948;28;20076;-47
2022/04/23 11:21:14;;;;;;;0.52;0.30;;;26.50;33.50;;;;;;5045765;28;20051;-47
2022/04/23 11:23:45;;;;;;;0.38;0.28;;;26.50;33.50;;;;;;5047028;28;20124;-48
2022/04/23 11:26:13;;;;;;;0.40;0.40;;;26.50;33.50;;;;;;5046877;28;20052;-47
2022/04/23 11:28:41;;;;;;;0.45;0.40;;;26.50;33.50;;;;;;5046266;28;20083;-45
2022/04/23 11:31:14;;;;;;;0.52;0.38;;;26.60;33.50;;;;;;5028595;28;20048;-48
2022/04/23 11:33:51;;;;;;;0.40;0.28;;;26.60;33.50;;;;;;5046606;28;20124;-51
2022/04/23 11:36:19;;;;;;;0.30;0.30;;;26.60;33.50;;;;;;5047085;28;20599;-52
2022/04/23 11:38:47;;;;;;;0.43;0.43;;;26.60;33.50;;;;;;5045550;28;20132;-49
2022/04/23 11:41:27;;;;;;;0.73;0.30;;;26.70;33.50;;;;;;5046706;28;20045;-46
2022/04/23 11:43:54;;;;;;;1.10;0.30;;;26.70;33.40;;;;;;5046637;28;20067;-48
2022/04/23 11:46:23;;;;;;;0.40;0.40;;;26.70;33.40;;;;;;5046255;28;20048;-46
2022/04/23 11:48:51;;;;;;;0.38;0.38;;;26.70;33.50;;;;;;5046787;28;20051;-46
2022/04/23 11:51:20;;;;;;;0.82;0.40;;;26.70;33.40;;;;;;5046947;28;20780;-45
2022/04/23 11:53:49;;;;;;;0.30;0.30;;;26.80;33.40;;;;;;5046379;28;20071;-50
2022/04/23 11:56:21;;;;;;;0.20;0.20;;;26.80;34.00;;;;;;5046253;28;20107;-50
2022/04/23 11:58:49;;;;;;;0.30;0.10;;;26.90;33.40;;;;;;5046499;28;20060;-44
2022/04/23 12:01:16;;;;;;;0.20;0.20;;;26.90;33.40;;;;;;5045496;28;20055;-46
2022/04/23 12:03:50;;;;;;;0.63;0.63;;;26.90;33.40;;;;;;5040517;28;20881;-43
2022/04/23 12:06:17;;;;;;;0.32;0.32;;;26.90;33.30;;;;;;5043490;28;20073;-49
2022/04/23 12:08:44;;;;;;;0.40;0.40;;;26.90;33.30;;;;;;5046796;28;20072;-46
2022/04/23 12:11:21;;;;;;;0.17;0.15;;;26.90;33.30;;;;;;5046170;28;20529;-45
2022/04/23 12:13:49;;;;;;;0.40;0.40;;;27.00;33.30;;;;;;5045841;28;20132;-45
2022/04/23 12:16:34;;;;;;;1.85;0.20;;;27.00;33.30;;;;;;5044248;28;20091;-46
2022/04/23 12:19:04;;;;;;;0.40;0.20;;;27.00;33.20;;;;;;5044666;28;20049;-47
2022/04/23 12:21:32;;;;;;;2.70;0.30;;;27.10;33.30;;;;;;5027936;28;20114;-47
2022/04/23 12:24:00;;;;;;;2.15;0.30;;;27.10;33.30;;;;;;5047093;28;20506;-47
2022/04/23 12:26:32;;;;;;;0.40;0.40;;;27.10;33.30;;;;;;5045811;28;20513;-44
2022/04/23 12:43:26;;;;;;;0.25;0.17;;;27.30;33.20;;;;;;5044750;28;20094;-45
2022/04/23 12:46:05;;;;;;;0.30;0.10;;;27.30;33.20;;;;;;5045621;28;20128;-44
2022/04/23 12:48:33;;;;;;;0.98;0.25;;;27.30;33.10;;;;;;5013634;28;20044;-47
2022/04/23 12:51:06;;;;;;;0.40;0.30;;;27.30;33.10;;;;;;5047045;28;20098;-43
2022/04/23 12:53:35;;;;;;;0.10;0.10;;;27.40;33.10;;;;;;5045462;28;20131;-44
2022/04/23 12:56:05;;;;;;;0.32;0.10;;;27.40;33.10;;;;;;5045092;28;20047;-45
2022/04/23 12:58:32;;;;;;;0.20;0.20;;;27.40;33.10;;;;;;5045703;28;20083;-49
2022/04/23 13:00:59;;;;;;;0.40;0.10;;;27.50;33.10;;;;;;5045433;28;20029;-47
2022/04/23 13:03:35;;;;;;;0.85;0.20;;;27.50;33.00;;;;;;5046065;28;20103;-49
2022/04/23 13:06:03;;;;;;;;;;;27.50;33.00;;;;;;5047653;28;20413;-46
2022/04/23 13:11:31;;;;;;;0.20;0.20;;;27.50;33.00;;;;;;5045220;28;20171;-47
2022/04/23 13:13:59;;;;;;;0.20;0.20;;;27.50;33.00;;;;;;5045505;28;20087;-45
2022/04/23 13:16:28;;;;;;;0.20;0.20;;;27.50;32.90;;;;;;5045326;28;20044;-45
2022/04/23 13:18:56;;;;;;;0.38;0.38;;;27.50;32.90;;;;;;5045531;28;20034;-49
2022/04/23 13:21:25;;;;;;;0.47;0.17;;;27.60;32.90;;;;;;5045326;28;20037;-46
2022/04/23 13:23:55;;;;;;;0.20;0.20;;;27.60;32.90;;;;;;5046788;28;20033;-46
2022/04/23 13:26:23;;;;;;;0.63;0.20;;;27.60;32.80;;;;;;5044628;28;20167;-44
2022/04/23 13:28:50;;;;;;;0.57;0.20;;;27.60;32.80;;;;;;5019032;28;20041;-46
2022/04/23 13:31:17;;;;;;;0.10;0.10;;;27.70;32.80;;;;;;5045193;28;20037;-44
2022/04/23 13:33:45;;;;;;;0.30;0.20;;;27.70;32.80;;;;;;5045159;28;20411;-44
2022/04/23 13:36:12;;;;;;;0.17;0.17;;;27.80;32.80;;;;;;5050166;28;20057;-44
2022/04/23 13:38:40;;;;;;;0.10;0.10;;;27.80;32.80;;;;;;5049174;28;20045;-44
2022/04/23 13:41:12;;;;;;;0.20;0.10;;;27.80;32.80;;;;;;5048728;28;20126;-45
2022/04/23 13:43:40;;;;;;;0.20;0.10;;;27.90;32.80;;;;;;5048639;28;20416;-43